Hadsten, Denmark
Current Conditions -  °F | °C
As of 10:20 PM on Friday 31 Oct 2014 (Local Time) from EKAH Reporting Station
Moderate Fog Moderate Fog  
Wind Chill: 54°   Ceiling: 100
Heat Index: 54°   Visibility: 0.21mi
Dew Point: 52°   Wind: 5mph
Humidity: 94%   Direction: 170°S
Pressure: 30.12"   Gusts: NA
Location:  56.33°N, 10.05°E
Report Text: EKAH 312120Z AUTO 17004KT 110V240 0350NDV R10R/1000D R28L/1100NFG VV001 12/11 Q1020
Loading
Personal Weather Stations






























Interactive Weather Map
Tropical Storm Tracking
New forecast layout! Learn more

10-Day Weather Forecast

Advertisements
Track Severe Weather on mobile